createdAt,value
2022-10-30T00:01:04.331Z,101538.75
2022-10-30T00:03:30.849Z,101550.22
2022-10-30T00:05:57.277Z,101552.06
2022-10-30T00:08:25.868Z,101544.28
2022-10-30T00:10:52.691Z,101539.84
2022-10-30T00:13:20.135Z,101543.41
2022-10-30T00:15:48.485Z,101536.34
2022-10-30T00:18:15.279Z,101538.06
2022-10-30T00:20:41.759Z,101536.22
2022-10-30T00:23:08.247Z,101530.91
2022-10-30T00:25:36.109Z,101525.72
2022-10-30T00:28:04.877Z,101529.13
2022-10-30T00:30:31.843Z,101524.69
2022-10-30T00:32:58.560Z,101534.34
2022-10-30T00:35:25.285Z,101528.28
2022-10-30T00:37:51.751Z,101529.13
2022-10-30T00:40:18.928Z,101522.06
2022-10-30T00:42:45.584Z,101529.06
2022-10-30T00:45:13.702Z,101508.81
2022-10-30T00:47:47.028Z,101525.53
2022-10-30T00:53:03.856Z,101519.34
2022-10-30T00:55:40.803Z,101530.00
2022-10-30T00:58:10.868Z,101514.13
2022-10-30T01:00:40.852Z,101513.28
2022-10-30T01:03:07.561Z,101515.06
2022-10-30T01:05:35.483Z,101516.91
2022-10-30T01:08:03.301Z,101524.84
2022-10-30T01:10:30.078Z,101516.13
2022-10-30T01:12:58.419Z,101510.88
2022-10-30T01:15:33.116Z,101514.53
2022-10-30T01:18:29.222Z,101512.88
2022-10-30T01:21:09.365Z,101512.97
2022-10-30T01:23:53.720Z,101519.22
2022-10-30T01:26:56.541Z,101513.16
2022-10-30T01:29:50.542Z,101509.50
2022-10-30T01:32:34.637Z,101496.09
2022-10-30T01:35:05.141Z,101503.03
2022-10-30T01:37:45.850Z,101499.53
2022-10-30T01:40:14.404Z,101499.47
2022-10-30T01:42:48.171Z,101504.75
2022-10-30T01:46:03.364Z,101499.47
2022-10-30T01:48:49.916Z,101496.69
2022-10-30T01:51:56.007Z,101493.25
2022-10-30T01:54:46.362Z,101491.50
2022-10-30T01:57:34.547Z,101484.41
2022-10-30T02:00:11.201Z,101474.81
2022-10-30T02:02:42.124Z,101473.09
2022-10-30T02:05:20.395Z,101473.31
2022-10-30T02:07:47.383Z,101483.94
2022-10-30T02:10:13.799Z,101477.06
2022-10-30T02:12:41.381Z,101483.38
2022-10-30T02:15:10.129Z,101479.00
2022-10-30T02:17:37.518Z,101479.13
2022-10-30T02:20:06.478Z,101475.63
2022-10-30T02:22:33.022Z,101479.25
2022-10-30T02:24:59.481Z,101476.63
2022-10-30T02:27:26.020Z,101471.44
2022-10-30T02:29:52.469Z,101474.09
2022-10-30T02:32:18.911Z,101483.00
2022-10-30T02:34:45.326Z,101480.38
2022-10-30T02:37:13.344Z,101478.72
2022-10-30T02:39:40.248Z,101480.50
2022-10-30T02:42:06.744Z,101480.59
2022-10-30T02:44:33.717Z,101477.94
2022-10-30T02:47:00.986Z,101481.47
2022-10-30T02:49:27.571Z,101484.19
2022-10-30T02:51:54.152Z,101485.13
2022-10-30T02:54:20.506Z,101481.75
2022-10-30T02:56:47.852Z,101473.94
2022-10-30T02:59:14.482Z,101483.78
2022-10-30T03:01:41.139Z,101487.47
2022-10-30T03:04:08.574Z,101491.09
2022-10-30T03:06:34.970Z,101489.53
2022-10-30T03:09:01.540Z,101501.91
2022-10-30T03:11:27.920Z,101497.63
2022-10-30T03:13:55.157Z,101495.06
2022-10-30T03:16:24.134Z,101495.16
2022-10-30T03:18:52.323Z,101489.94
2022-10-30T03:21:21.423Z,101495.22
2022-10-30T03:23:48.437Z,101503.16
2022-10-30T03:26:15.524Z,101504.94
2022-10-30T03:28:49.418Z,101509.41
2022-10-30T03:31:17.864Z,101509.50
2022-10-30T03:33:45.797Z,101502.56
2022-10-30T03:36:13.828Z,101505.22
2022-10-30T03:38:40.445Z,101508.81
2022-10-30T03:41:08.770Z,101504.44
2022-10-30T03:43:35.167Z,101498.31
2022-10-30T03:46:02.569Z,101497.59
2022-10-30T03:48:30.480Z,101505.53
2022-10-30T03:50:59.361Z,101513.53
2022-10-30T03:53:28.990Z,101506.53
2022-10-30T03:56:03.810Z,101504.88
2022-10-30T03:58:39.655Z,101509.09
2022-10-30T04:01:09.813Z,101510.03
2022-10-30T04:03:39.162Z,101515.38
2022-10-30T04:06:08.426Z,101514.59
2022-10-30T04:08:34.931Z,101516.38
2022-10-30T04:11:02.556Z,101512.91
2022-10-30T04:13:29.242Z,101510.25
2022-10-30T04:15:58.052Z,101526.06
2022-10-30T04:18:26.091Z,101518.16
2022-10-30T04:20:53.058Z,101520.81
2022-10-30T04:23:20.714Z,101513.84
2022-10-30T04:25:47.974Z,101513.00
2022-10-30T04:28:14.604Z,101516.56
2022-10-30T04:30:41.827Z,101509.63
2022-10-30T04:33:11.974Z,101511.44
2022-10-30T04:35:39.621Z,101499.19
2022-10-30T04:38:15.326Z,101498.44
2022-10-30T04:40:44.274Z,101502.00
2022-10-30T04:43:13.079Z,101497.69
2022-10-30T04:45:40.342Z,101502.13
2022-10-30T04:48:10.754Z,101500.47
2022-10-30T04:50:37.191Z,101496.91
2022-10-30T04:53:16.018Z,101495.25
2022-10-30T04:55:44.357Z,101496.84
2022-10-30T04:58:12.412Z,101491.63
2022-10-30T05:00:40.546Z,101491.75
2022-10-30T05:03:20.813Z,101497.13
2022-10-30T05:05:59.637Z,101491.06
2022-10-30T05:08:26.259Z,101490.13
2022-10-30T05:10:54.210Z,101492.91
2022-10-30T05:13:20.651Z,101494.69
2022-10-30T05:15:47.013Z,101498.19
2022-10-30T05:18:13.840Z,101500.81
2022-10-30T05:20:40.236Z,101497.25
2022-10-30T05:23:09.299Z,101496.41
2022-10-30T05:25:35.802Z,101492.91
2022-10-30T05:28:06.282Z,101500.81
2022-10-30T05:30:40.212Z,101504.38
2022-10-30T05:33:18.031Z,101504.31
2022-10-30T05:35:44.544Z,101500.88
2022-10-30T05:38:11.936Z,101500.06
2022-10-30T05:40:38.472Z,101502.75
2022-10-30T05:43:05.600Z,101499.41
2022-10-30T05:45:32.868Z,101496.81
2022-10-30T05:48:03.981Z,101507.41
2022-10-30T05:50:34.492Z,101508.31
2022-10-30T05:53:17.057Z,101511.03
2022-10-30T05:55:44.102Z,101511.16
2022-10-30T05:58:15.648Z,101516.38
2022-10-30T06:00:44.356Z,101516.44
2022-10-30T06:03:14.163Z,101518.19
2022-10-30T06:05:45.338Z,101515.66
2022-10-30T06:08:12.817Z,101527.97
2022-10-30T06:10:39.296Z,101525.31
2022-10-30T06:13:28.392Z,101527.91
2022-10-30T06:16:01.611Z,101528.81
2022-10-30T06:18:46.397Z,101529.69
2022-10-30T06:21:13.266Z,101528.84
2022-10-30T06:24:02.691Z,101530.59
2022-10-30T06:26:36.795Z,101539.41
2022-10-30T06:29:08.719Z,101539.38
2022-10-30T06:31:35.138Z,101541.16
2022-10-30T06:34:02.154Z,101539.38
2022-10-30T06:36:30.268Z,101541.94
2022-10-30T06:38:58.228Z,101537.53
2022-10-30T06:41:30.542Z,101542.75
2022-10-30T06:44:08.325Z,101531.31
2022-10-30T06:46:36.558Z,101544.44
2022-10-30T06:49:02.904Z,101539.25
2022-10-30T06:51:31.914Z,101540.09
2022-10-30T06:53:59.645Z,101543.53
2022-10-30T06:56:37.885Z,101541.75
2022-10-30T06:59:10.278Z,101549.56
2022-10-30T07:01:59.205Z,101554.66
2022-10-30T07:04:35.885Z,101555.34
2022-10-30T07:07:02.342Z,101554.31
2022-10-30T07:09:29.781Z,101558.50
2022-10-30T07:11:57.255Z,101561.88
2022-10-30T07:14:43.969Z,101559.00
2022-10-30T07:17:15.731Z,101559.78
2022-10-30T07:19:48.130Z,101560.50
2022-10-30T07:22:15.810Z,101566.59
2022-10-30T07:24:46.215Z,101564.72
2022-10-30T07:27:44.762Z,101557.66
2022-10-30T07:30:27.975Z,101572.38
2022-10-30T07:33:18.991Z,101570.56
2022-10-30T07:35:54.385Z,101579.28
2022-10-30T07:38:43.673Z,101575.59
2022-10-30T07:41:28.370Z,101583.41
2022-10-30T07:44:14.572Z,101578.84
2022-10-30T07:46:52.818Z,101576.97
2022-10-30T07:49:44.309Z,101583.78
2022-10-30T07:52:16.334Z,101580.03
2022-10-30T07:54:45.106Z,101585.94
2022-10-30T07:57:27.403Z,101586.50
2022-10-30T08:00:14.360Z,101589.53
2022-10-30T08:02:41.766Z,101589.84
2022-10-30T08:05:15.453Z,101593.75
2022-10-30T08:08:02.753Z,101595.00
2022-10-30T08:10:29.495Z,101597.25
2022-10-30T08:12:56.694Z,101597.06
2022-10-30T08:15:23.905Z,101596.78
2022-10-30T08:17:51.223Z,101591.41
2022-10-30T08:20:20.584Z,101591.41
2022-10-30T08:22:52.736Z,101585.34
2022-10-30T08:25:27.262Z,101579.41
2022-10-30T08:27:57.025Z,101582.78
2022-10-30T08:30:27.191Z,101577.34
2022-10-30T08:33:00.714Z,101586.09
2022-10-30T08:35:50.315Z,101587.88
2022-10-30T08:38:17.734Z,101587.91
2022-10-30T08:40:46.843Z,101592.22
2022-10-30T08:43:13.688Z,101591.16
2022-10-30T08:45:41.519Z,101596.59
2022-10-30T08:48:16.588Z,101598.63
2022-10-30T08:50:44.221Z,101593.56
2022-10-30T08:53:15.362Z,101599.72
2022-10-30T08:55:43.988Z,101597.84
2022-10-30T08:58:19.664Z,101598.50
2022-10-30T09:00:47.177Z,101590.38
2022-10-30T09:03:13.702Z,101587.47
2022-10-30T09:05:59.929Z,101589.81
2022-10-30T09:08:52.036Z,101602.66
2022-10-30T09:11:50.533Z,101603.22
2022-10-30T09:14:17.064Z,101601.25
2022-10-30T09:16:43.559Z,101592.91
2022-10-30T09:19:13.567Z,101592.28
2022-10-30T09:21:42.584Z,101589.94
2022-10-30T09:24:09.151Z,101591.25
2022-10-30T09:26:35.610Z,101592.47
2022-10-30T09:29:10.004Z,101593.66
2022-10-30T09:31:56.425Z,101594.78
2022-10-30T09:36:59.409Z,101585.84
2022-10-30T09:39:25.942Z,101598.44
2022-10-30T09:42:06.297Z,101593.34
2022-10-30T09:45:29.394Z,101595.81
2022-10-30T09:48:02.121Z,101598.16
2022-10-30T09:51:00.123Z,101589.06
2022-10-30T09:54:05.578Z,101593.19
2022-10-30T09:57:02.229Z,101601.72
2022-10-30T09:59:40.112Z,101596.63
2022-10-30T10:02:34.298Z,101588.31
2022-10-30T10:05:09.838Z,101583.59
2022-10-30T10:08:10.369Z,101578.41
2022-10-30T10:11:00.098Z,101579.13
2022-10-30T10:13:30.582Z,101564.22
2022-10-30T10:16:03.168Z,101569.22
2022-10-30T10:18:35.137Z,101559.66
2022-10-30T10:21:09.655Z,101546.41
2022-10-30T10:23:47.300Z,101561.00
2022-10-30T10:26:30.219Z,101564.63
2022-10-30T10:29:03.869Z,101555.97
2022-10-30T10:31:54.044Z,101551.41
2022-10-30T10:35:00.735Z,101547.34
2022-10-30T10:37:49.507Z,101545.03
2022-10-30T10:40:45.769Z,101544.19
2022-10-30T10:43:25.731Z,101537.72
2022-10-30T10:46:23.047Z,101545.84
2022-10-30T10:49:13.498Z,101539.34
2022-10-30T10:51:43.976Z,101538.66
2022-10-30T10:54:19.354Z,101543.16
2022-10-30T10:56:49.842Z,101551.91
2022-10-30T10:59:18.032Z,101544.38
2022-10-30T11:01:54.476Z,101545.97
2022-10-30T11:04:31.274Z,101543.78
2022-10-30T11:06:58.761Z,101533.16
2022-10-30T11:09:28.248Z,101539.25
2022-10-30T11:11:55.575Z,101526.84
2022-10-30T11:14:25.078Z,101521.06
2022-10-30T11:17:02.195Z,101522.09
2022-10-30T11:19:31.162Z,101522.34
2022-10-30T11:21:58.982Z,101518.56
2022-10-30T11:24:30.092Z,101519.53
2022-10-30T11:26:58.408Z,101519.53
2022-10-30T11:29:29.798Z,101520.88
2022-10-30T11:32:03.852Z,101518.28
2022-10-30T11:34:39.178Z,101513.88
2022-10-30T11:37:05.784Z,101521.41
2022-10-30T11:39:35.099Z,101531.44
2022-10-30T11:42:06.354Z,101515.88
2022-10-30T11:44:45.278Z,101520.28
2022-10-30T11:47:14.531Z,101519.66
2022-10-30T11:49:57.180Z,101513.72
2022-10-30T11:52:26.319Z,101519.31
2022-10-30T11:55:02.730Z,101515.94
2022-10-30T11:57:48.880Z,101515.50
2022-10-30T12:00:28.100Z,101512.50
2022-10-30T12:02:57.236Z,101514.41
2022-10-30T12:05:27.078Z,101511.19
2022-10-30T12:07:54.851Z,101502.38
2022-10-30T12:10:29.559Z,101501.16
2022-10-30T12:12:56.871Z,101507.34
2022-10-30T12:15:27.065Z,101504.28
2022-10-30T12:18:01.831Z,101507.84
2022-10-30T12:20:29.353Z,101500.97
2022-10-30T12:22:56.221Z,101511.31
2022-10-30T12:25:24.875Z,101508.19
2022-10-30T12:28:00.015Z,101507.03
2022-10-30T12:30:30.927Z,101505.25
2022-10-30T12:33:03.986Z,101510.19
2022-10-30T12:35:40.098Z,101517.34
2022-10-30T12:38:15.526Z,101516.56
2022-10-30T12:40:56.115Z,101512.38
2022-10-30T12:43:27.616Z,101514.28
2022-10-30T12:46:27.533Z,101507.28
2022-10-30T12:49:06.010Z,101516.16
2022-10-30T12:51:39.400Z,101511.75
2022-10-30T12:54:32.502Z,101506.50
2022-10-30T12:57:11.103Z,101518.41
2022-10-30T13:00:03.583Z,101508.31
2022-10-30T13:02:38.966Z,101513.38
2022-10-30T13:05:24.264Z,101507.03
2022-10-30T13:08:01.513Z,101514.75
2022-10-30T13:10:40.811Z,101513.22
2022-10-30T13:13:17.103Z,101506.88
2022-10-30T13:15:48.265Z,101501.97
2022-10-30T13:18:20.232Z,101505.41
2022-10-30T13:21:22.286Z,101504.56
2022-10-30T13:23:58.946Z,101508.44
2022-10-30T13:26:59.656Z,101508.75
2022-10-30T13:29:34.719Z,101514.88
2022-10-30T13:32:13.208Z,101515.72
2022-10-30T13:34:48.019Z,101516.31
2022-10-30T13:37:28.678Z,101514.41
2022-10-30T13:40:20.199Z,101517.44
2022-10-30T13:43:20.237Z,101522.50
2022-10-30T13:46:00.999Z,101524.03
2022-10-30T13:48:49.685Z,101518.38
2022-10-30T13:51:50.093Z,101525.13
2022-10-30T13:54:23.363Z,101511.84
2022-10-30T13:56:52.153Z,101519.78
2022-10-30T13:59:36.721Z,101517.81
2022-10-30T14:02:48.031Z,101520.06
2022-10-30T14:05:36.141Z,101512.06
2022-10-30T14:08:10.319Z,101512.22
2022-10-30T14:10:45.210Z,101514.19
2022-10-30T14:13:26.574Z,101508.03
2022-10-30T14:15:56.319Z,101521.84
2022-10-30T14:18:28.659Z,101517.94
2022-10-30T14:20:57.844Z,101516.72
2022-10-30T14:23:37.354Z,101512.97
2022-10-30T14:26:06.522Z,101522.34
2022-10-30T14:28:36.003Z,101518.53
2022-10-30T14:31:03.355Z,101519.97
2022-10-30T14:33:50.931Z,101522.31
2022-10-30T14:36:23.022Z,101532.81
2022-10-30T14:39:09.297Z,101537.41
2022-10-30T14:42:07.864Z,101539.19
2022-10-30T14:44:51.890Z,101534.34
2022-10-30T14:47:48.903Z,101539.16
2022-10-30T14:50:20.124Z,101531.75
2022-10-30T14:53:26.182Z,101527.84
2022-10-30T14:59:20.003Z,101526.00
2022-10-30T15:02:14.984Z,101525.53
2022-10-30T15:05:09.748Z,101524.84
2022-10-30T15:08:08.714Z,101524.16
2022-10-30T15:10:36.620Z,101523.81
2022-10-30T15:13:20.509Z,101515.97
2022-10-30T15:15:58.264Z,101515.22
2022-10-30T15:18:29.420Z,101514.97
2022-10-30T15:21:06.033Z,101517.66
2022-10-30T15:23:41.566Z,101515.09
2022-10-30T15:26:20.138Z,101523.88
2022-10-30T15:28:50.225Z,101514.75
2022-10-30T15:31:31.064Z,101521.75
2022-10-30T15:34:00.324Z,101515.09
2022-10-30T15:36:40.961Z,101523.06
2022-10-30T15:39:11.756Z,101514.59
2022-10-30T15:41:48.962Z,101508.19
2022-10-30T15:44:28.768Z,101517.50
2022-10-30T15:46:57.994Z,101518.13
2022-10-30T15:49:36.287Z,101525.03
2022-10-30T15:52:12.185Z,101520.91
2022-10-30T15:54:41.663Z,101514.31
2022-10-30T15:57:49.550Z,101509.72
2022-10-30T16:03:12.917Z,101520.28
2022-10-30T16:05:39.646Z,101523.13
2022-10-30T16:08:21.162Z,101521.31
2022-10-30T16:10:49.450Z,101530.16
2022-10-30T16:13:22.868Z,101529.88
2022-10-30T16:15:50.178Z,101531.00
2022-10-30T16:18:21.224Z,101542.03
2022-10-30T16:20:51.472Z,101542.41
2022-10-30T16:23:20.129Z,101545.41
2022-10-30T16:25:48.299Z,101543.94
2022-10-30T16:28:27.273Z,101545.22
2022-10-30T16:30:55.166Z,101546.16
2022-10-30T16:33:26.060Z,101547.25
2022-10-30T16:35:55.678Z,101542.03
2022-10-30T16:38:23.726Z,101535.09
2022-10-30T16:40:51.121Z,101538.84
2022-10-30T16:43:32.044Z,101542.66
2022-10-30T16:46:21.638Z,101539.50
2022-10-30T16:48:59.567Z,101540.44
2022-10-30T16:51:26.776Z,101542.28
2022-10-30T16:53:53.592Z,101541.63
2022-10-30T16:56:28.157Z,101539.28
2022-10-30T16:58:58.990Z,101541.16
2022-10-30T17:01:29.205Z,101551.84
2022-10-30T17:03:56.818Z,101552.06
2022-10-30T17:06:28.732Z,101555.88
2022-10-30T17:08:58.884Z,101557.00
2022-10-30T17:11:41.922Z,101559.94
2022-10-30T17:14:20.068Z,101567.13
2022-10-30T17:17:19.882Z,101562.00
2022-10-30T17:19:47.675Z,101562.91
2022-10-30T17:22:19.321Z,101562.34
2022-10-30T17:24:47.557Z,101557.25
2022-10-30T17:27:35.947Z,101560.22
2022-10-30T17:30:03.708Z,101563.66
2022-10-30T17:32:44.578Z,101572.00
2022-10-30T17:35:19.502Z,101566.91
2022-10-30T17:37:46.961Z,101564.34
2022-10-30T17:40:14.068Z,101568.00
2022-10-30T17:42:43.791Z,101579.53
2022-10-30T17:45:14.163Z,101571.03
2022-10-30T17:47:44.439Z,101569.22
2022-10-30T17:50:11.839Z,101571.03
2022-10-30T17:52:38.337Z,101574.63
2022-10-30T17:55:20.871Z,101580.13
2022-10-30T17:57:47.421Z,101573.88
2022-10-30T18:00:14.565Z,101583.91
2022-10-30T18:02:41.716Z,101587.41
2022-10-30T18:05:21.330Z,101581.56
2022-10-30T18:10:14.470Z,101588.88
2022-10-30T18:12:41.408Z,101593.38
2022-10-30T18:15:26.316Z,101602.41
2022-10-30T18:17:52.970Z,101595.31
2022-10-30T18:20:19.518Z,101590.16
2022-10-30T18:22:46.190Z,101607.94
2022-10-30T18:25:21.572Z,101588.81
2022-10-30T18:27:48.231Z,101593.16
2022-10-30T18:30:15.600Z,101596.75
2022-10-30T18:32:42.945Z,101595.13
2022-10-30T18:35:13.503Z,101600.53
2022-10-30T18:37:40.024Z,101597.97
2022-10-30T18:40:07.057Z,101598.94
2022-10-30T18:42:33.440Z,101600.81
2022-10-30T18:44:59.944Z,101597.41
2022-10-30T18:47:26.278Z,101608.09
2022-10-30T18:49:52.754Z,101604.75
2022-10-30T18:52:19.247Z,101608.34
2022-10-30T18:54:45.719Z,101612.94
2022-10-30T18:57:12.206Z,101611.34
2022-10-30T18:59:38.570Z,101610.56
2022-10-30T19:02:20.265Z,101607.22
2022-10-30T19:04:46.868Z,101609.00
2022-10-30T19:07:13.209Z,101609.03
2022-10-30T19:09:40.382Z,101610.91
2022-10-30T19:12:10.136Z,101610.19
2022-10-30T19:14:36.748Z,101619.06
2022-10-30T19:17:03.216Z,101609.47
2022-10-30T19:19:29.802Z,101610.47
2022-10-30T19:21:56.367Z,101609.59
2022-10-30T19:24:22.767Z,101609.69
2022-10-30T19:26:49.288Z,101604.47
2022-10-30T19:29:15.886Z,101608.00
2022-10-30T19:31:42.468Z,101605.44
2022-10-30T19:34:08.953Z,101600.38
2022-10-30T19:36:37.230Z,101600.56
2022-10-30T19:39:09.994Z,101608.56
2022-10-30T19:41:37.164Z,101613.06
2022-10-30T19:44:04.224Z,101605.16
2022-10-30T19:46:30.664Z,101605.31
2022-10-30T19:48:58.512Z,101615.97
2022-10-30T19:51:27.300Z,101611.69
2022-10-30T19:53:54.110Z,101609.94
2022-10-30T19:56:21.976Z,101610.06
2022-10-30T19:58:48.957Z,101612.78
2022-10-30T20:01:15.998Z,101619.88
2022-10-30T20:03:43.027Z,101613.81
2022-10-30T20:06:13.357Z,101612.25
2022-10-30T20:08:39.803Z,101619.34
2022-10-30T20:11:06.211Z,101623.88
2022-10-30T20:13:33.412Z,101626.66
2022-10-30T20:16:02.322Z,101622.44
2022-10-30T20:18:31.383Z,101619.88
2022-10-30T20:20:59.830Z,101618.22
2022-10-30T20:23:26.552Z,101614.72
2022-10-30T20:25:56.912Z,101611.28
2022-10-30T20:28:36.968Z,101616.69
2022-10-30T20:31:04.572Z,101628.94
2022-10-30T20:33:31.210Z,101630.88
2022-10-30T20:35:57.778Z,101631.03
2022-10-30T20:38:26.628Z,101635.63
2022-10-30T20:40:53.982Z,101634.78
2022-10-30T20:43:29.160Z,101629.66
2022-10-30T20:46:01.270Z,101637.66
2022-10-30T20:48:29.138Z,101637.84
2022-10-30T20:50:58.143Z,101641.53
2022-10-30T20:53:24.980Z,101635.50
2022-10-30T20:55:55.212Z,101638.25
2022-10-30T20:58:21.863Z,101647.19
2022-10-30T21:00:48.664Z,101649.88
2022-10-30T21:03:16.167Z,101646.44
2022-10-30T21:05:45.718Z,101644.78
2022-10-30T21:08:15.867Z,101638.81
2022-10-30T21:10:42.499Z,101646.78
2022-10-30T21:13:10.734Z,101644.22
2022-10-30T21:15:42.968Z,101644.41
2022-10-30T21:18:12.842Z,101644.41
2022-10-30T21:20:40.922Z,101642.72
2022-10-30T21:23:07.451Z,101639.28
2022-10-30T21:25:34.132Z,101637.63
2022-10-30T21:28:00.706Z,101631.50
2022-10-30T21:30:27.753Z,101638.56
2022-10-30T21:32:54.231Z,101632.50
2022-10-30T21:35:21.040Z,101634.28
2022-10-30T21:37:47.719Z,101626.44
2022-10-30T21:40:14.329Z,101641.41
2022-10-30T21:42:41.012Z,101643.22
2022-10-30T21:45:09.159Z,101645.91
2022-10-30T21:47:35.906Z,101641.56
2022-10-30T21:50:07.589Z,101645.97
2022-10-30T21:52:35.941Z,101645.13
2022-10-30T21:55:02.429Z,101642.47
2022-10-30T21:57:29.339Z,101641.66
2022-10-30T21:59:58.762Z,101638.22
2022-10-30T22:02:31.016Z,101639.13
2022-10-30T22:04:57.788Z,101633.09
2022-10-30T22:07:24.657Z,101633.16
2022-10-30T22:09:51.437Z,101633.22
2022-10-30T22:12:17.990Z,101640.34
2022-10-30T22:14:44.422Z,101632.53
2022-10-30T22:17:13.658Z,101634.41
2022-10-30T22:19:40.152Z,101637.97
2022-10-30T22:22:06.855Z,101638.97
2022-10-30T22:24:33.834Z,101647.88
2022-10-30T22:27:00.579Z,101654.13
2022-10-30T22:29:27.259Z,101648.09
2022-10-30T22:31:53.758Z,101655.28
2022-10-30T22:34:20.748Z,101652.69
2022-10-30T22:36:47.630Z,101652.75
2022-10-30T22:39:14.584Z,101655.47
2022-10-30T22:41:42.019Z,101652.03
2022-10-30T22:44:12.757Z,101657.38
2022-10-30T22:46:39.509Z,101659.22
2022-10-30T22:49:06.895Z,101654.91
2022-10-30T22:51:35.514Z,101660.22
2022-10-30T22:54:04.318Z,101662.97
2022-10-30T22:56:33.481Z,101672.69
2022-10-30T22:59:10.366Z,101667.59
2022-10-30T23:01:37.558Z,101670.13
2022-10-30T23:04:05.669Z,101669.25
2022-10-30T23:06:34.169Z,101666.69
2022-10-30T23:09:02.586Z,101660.56
2022-10-30T23:11:30.333Z,101664.06
2022-10-30T23:13:57.006Z,101665.88
2022-10-30T23:16:25.029Z,101670.38
2022-10-30T23:18:54.929Z,101679.16
2022-10-30T23:21:23.910Z,101678.53
2022-10-30T23:23:50.573Z,101680.34
2022-10-30T23:26:22.290Z,101681.31
2022-10-30T23:28:51.208Z,101683.09
2022-10-30T23:31:38.773Z,101685.00
2022-10-30T23:34:08.179Z,101691.97
2022-10-30T23:36:38.817Z,101696.41
2022-10-30T23:39:08.082Z,101692.06
2022-10-30T23:41:34.632Z,101692.06
2022-10-30T23:44:05.154Z,101688.56
2022-10-30T23:46:32.399Z,101705.25
2022-10-30T23:48:58.981Z,101697.41
2022-10-30T23:51:25.442Z,101696.59
2022-10-30T23:53:52.596Z,101704.50
2022-10-30T23:56:19.576Z,101703.69
2022-10-30T23:58:47.687Z,101703.69
